Time;durP1;ratioP1;P1;durP2;ratioP2;P2;SDS_P1;SDS_P2;PMS_P1;PMS_P2;Temp;Humidity;BMP_temperature;BMP_pressure;BME280_temperature;BME280_humidity;BME280_pressure;Samples;Min_cycle;Max_cycle;Signal;HPM_P1;HPM_P2
2023/05/29 00:00:05;;;;;;;;;;;;;;;20.01;100.00;99558.72;5008065;28;19972;-87
2023/05/29 00:02:35;;;;;;;;;;;;;;;20.04;100.00;99561.81;5011604;28;19925;-88
2023/05/29 00:05:05;;;;;;;;;;;;;;;20.07;100.00;99565.09;5008365;28;19960;-87
2023/05/29 00:07:32;;;;;;;;;;;;;;;20.03;100.00;99560.16;5024195;28;19981;-86
2023/05/29 00:09:58;;;;;;;;;;;;;;;20.03;100.00;99560.16;5017209;28;19917;-87
2023/05/29 00:12:23;;;;;;;;;;;;;;;20.05;100.00;99551.91;5012673;28;19925;-87
2023/05/29 00:14:49;;;;;;;;;;;;;;;20.04;100.00;99555.63;5009123;28;20433;-86
2023/05/29 00:17:15;;;;;;;;;;;;;;;20.04;100.00;99555.63;5012411;28;19963;-87
2023/05/29 00:19:42;;;;;;;;;;;;;;;20.04;100.00;99558.28;5009235;28;19947;-87
2023/05/29 00:22:07;;;;;;;;;;;;;;;19.96;100.00;99562.00;5011840;28;19949;-88
2023/05/29 00:24:33;;;;;;;;;;;;;;;19.98;100.00;99572.50;5010863;28;20000;-87
2023/05/29 00:26:58;;;;;;;;;;;;;;;20.02;100.00;99573.75;5013282;28;19924;-86
2023/05/29 00:29:23;;;;;;;;;;;;;;;20.05;100.00;99578.69;5012093;28;20008;-87
2023/05/29 00:31:49;;;;;;;;;;;;;;;20.09;100.00;99590.66;5016828;28;19932;-87
2023/05/29 00:34:14;;;;;;;;;;;;;;;20.06;100.00;99582.22;5015917;28;19917;-87
2023/05/29 00:36:40;;;;;;;;;;;;;;;19.69;100.00;99576.34;5020506;28;19924;-87
2023/05/29 00:39:05;;;;;;;;;;;;;;;19.61;100.00;99560.47;5019704;28;19918;-87
2023/05/29 00:41:32;;;;;;;;;;;;;;;19.33;100.00;99562.34;5021439;28;19928;-87
2023/05/29 00:43:58;;;;;;;;;;;;;;;19.08;100.00;99560.19;5013067;28;19917;-87
2023/05/29 00:46:24;;;;;;;;;;;;;;;18.97;100.00;99570.59;5010483;28;19917;-87
2023/05/29 00:48:49;;;;;;;;;;;;;;;18.80;100.00;99583.44;4989500;28;20024;-86
2023/05/29 00:51:15;;;;;;;;;;;;;;;18.72;100.00;99586.28;4995834;28;19924;-86
2023/05/29 00:53:42;;;;;;;;;;;;;;;18.59;100.00;99603.03;5009926;28;19952;-86
2023/05/29 00:56:08;;;;;;;;;;;;;;;18.61;100.00;99610.88;4993047;28;19917;-87
2023/05/29 00:58:34;;;;;;;;;;;;;;;18.51;100.00;99604.97;5002817;28;19928;-87
2023/05/29 01:01:00;;;;;;;;;;;;;;;18.54;100.00;99608.09;5003751;28;19921;-88
2023/05/29 01:03:25;;;;;;;;;;;;;;;18.51;100.00;99607.63;5004646;28;19928;-86
2023/05/29 01:05:52;;;;;;;;;;;;;;;18.64;100.00;99619.31;5006550;28;20390;-88
2023/05/29 01:08:17;;;;;;;;;;;;;;;18.65;100.00;99609.44;4989279;28;20263;-87
2023/05/29 01:10:43;;;;;;;;;;;;;;;18.62;100.00;99612.50;5013091;28;19924;-86
2023/05/29 01:13:19;;;;;;;;;;;;;;;18.56;100.00;99611.41;5001742;28;19917;-88
2023/05/29 01:15:56;;;;;;;;;;;;;;;18.56;100.00;99613.25;5010527;28;20018;-87
2023/05/29 01:18:37;;;;;;;;;;;;;;;18.57;100.00;99609.56;5005020;28;19991;-87
2023/05/29 01:21:10;;;;;;;;;;;;;;;18.51;100.00;99616.47;4986623;28;20325;-87
2023/05/29 01:23:51;;;;;;;;;;;;;;;18.58;100.00;99611.22;4985737;28;19921;-86
2023/05/29 01:26:25;;;;;;;;;;;;;;;18.60;100.00;99614.56;4982418;28;19918;-87
2023/05/29 01:28:52;;;;;;;;;;;;;;;18.50;100.00;99619.34;4994730;28;19921;-87
2023/05/29 01:31:22;;;;;;;;;;;;;;;18.48;100.00;99611.53;4976571;28;20000;-89
2023/05/29 01:33:55;;;;;;;;;;;;;;;18.31;100.00;99616.31;4995780;28;19914;-87
2023/05/29 01:36:21;;;;;;;;;;;;;;;17.98;100.00;99618.63;4986865;28;19918;-89
2023/05/29 01:38:50;;;;;;;;;;;;;;;17.87;100.00;99624.47;4975388;28;19934;-87
2023/05/29 01:41:16;;;;;;;;;;;;;;;17.69;100.00;99621.38;4974913;28;20379;-88
2023/05/29 01:43:42;;;;;;;;;;;;;;;17.65;100.00;99624.59;4975637;28;20020;-89
2023/05/29 01:46:09;;;;;;;;;;;;;;;17.68;100.00;99613.53;4979083;28;19925;-89
2023/05/29 01:48:35;;;;;;;;;;;;;;;17.72;100.00;99617.50;4972553;28;20660;-89
2023/05/29 01:51:01;;;;;;;;;;;;;;;17.71;100.00;99618.53;4991038;28;19918;-89
2023/05/29 01:53:26;;;;;;;;;;;;;;;17.70;100.00;99616.88;4978348;28;19929;-88
2023/05/29 01:55:51;;;;;;;;;;;;;;;17.62;100.00;99617.78;4979442;28;20457;-89
2023/05/29 01:58:18;;;;;;;;;;;;;;;17.67;100.00;99603.91;4988805;28;20012;-89
2023/05/29 02:00:43;;;;;;;;;;;;;;;17.59;100.00;99610.97;4989482;28;20009;-88
2023/05/29 02:03:08;;;;;;;;;;;;;;;17.54;100.00;99613.38;4973636;28;19953;-89
2023/05/29 02:05:34;;;;;;;;;;;;;;;17.54;100.00;99613.38;4982838;28;19917;-88
2023/05/29 02:07:59;;;;;;;;;;;;;;;17.30;100.00;99619.00;4980103;28;20008;-87
2023/05/29 02:10:25;;;;;;;;;;;;;;;17.09;100.00;99618.88;4988429;28;19963;-88
2023/05/29 02:12:50;;;;;;;;;;;;;;;16.98;100.00;99611.34;4980741;28;19944;-87
2023/05/29 02:15:16;;;;;;;;;;;;;;;16.89;100.00;99612.44;4991000;28;20012;-87
2023/05/29 02:17:41;;;;;;;;;;;;;;;16.82;100.00;99617.66;4991648;28;19922;-88
2023/05/29 02:20:07;;;;;;;;;;;;;;;16.93;100.00;99619.06;4983331;28;19918;-86
2023/05/29 02:22:32;;;;;;;;;;;;;;;16.93;100.00;99603.06;4997667;28;20008;-85
2023/05/29 02:24:58;;;;;;;;;;;;;;;16.99;100.00;99613.00;5022098;23;19925;-71
2023/05/29 02:27:23;;;;;;;;;;;;;;;17.02;100.00;99602.78;4972849;28;19921;-73
2023/05/29 02:29:50;;;;;;;;;;;;;;;17.05;100.00;99601.59;5006770;28;20012;-72
2023/05/29 02:32:15;;;;;;;;;;;;;;;16.99;100.00;99607.66;5020291;28;19922;-72
2023/05/29 02:34:40;;;;;;;;;;;;;;;16.86;100.00;99607.44;4987584;28;20477;-72
2023/05/29 02:37:06;;;;;;;;;;;;;;;16.83;100.00;99607.84;5007785;28;20008;-72
2023/05/29 02:39:31;;;;;;;;;;;;;;;16.79;100.00;99602.84;4990574;28;19936;-73
2023/05/29 02:41:56;;;;;;;;;;;;;;;16.67;100.00;99600.84;5006385;28;19914;-72
2023/05/29 02:44:22;;;;;;;;;;;;;;;16.68;100.00;99605.97;5009519;28;20336;-72
2023/05/29 02:46:47;;;;;;;;;;;;;;;16.59;100.00;99601.72;5017529;28;20369;-72
2023/05/29 02:49:14;;;;;;;;;;;;;;;16.51;100.00;99587.59;4984845;28;19913;-72
2023/05/29 02:51:39;;;;;;;;;;;;;;;16.58;100.00;99589.38;5008011;28;19968;-72
2023/05/29 02:54:05;;;;;;;;;;;;;;;16.48;100.00;99594.13;4986027;28;20278;-71
2023/05/29 02:56:30;;;;;;;;;;;;;;;16.46;100.00;99596.13;5010431;28;19917;-73
2023/05/29 02:58:55;;;;;;;;;;;;;;;16.39;100.00;99584.53;4987800;28;19924;-72
2023/05/29 03:01:21;;;;;;;;;;;;;;;16.39;100.00;99588.03;5007103;28;19924;-73
2023/05/29 03:03:47;;;;;;;;;;;;;;;16.35;100.00;99588.56;4991592;28;19921;-73
2023/05/29 03:06:13;;;;;;;;;;;;;;;16.32;100.00;99584.41;5010124;28;19979;-73
2023/05/29 03:08:44;;;;;;;;;;;;;;;16.39;100.00;99587.19;4987818;28;19981;-73
2023/05/29 03:11:10;;;;;;;;;;;;;;;16.48;100.00;99586.16;4990344;28;19925;-73
2023/05/29 03:13:36;;;;;;;;;;;;;;;16.45;100.00;99583.81;4990862;28;20362;-72
2023/05/29 03:16:04;;;;;;;;;;;;;;;16.48;100.00;99578.16;4987937;28;19928;-72
2023/05/29 03:18:30;;;;;;;;;;;;;;;16.43;100.00;99585.84;4987737;28;19917;-73
2023/05/29 03:20:55;;;;;;;;;;;;;;;16.40;100.00;99594.19;4988449;28;19918;-72
2023/05/29 03:23:21;;;;;;;;;;;;;;;16.38;100.00;99588.19;4988730;28;19918;-73
2023/05/29 03:25:46;;;;;;;;;;;;;;;16.52;100.00;99579.44;4996482;28;19917;-73
2023/05/29 03:28:12;;;;;;;;;;;;;;;16.66;100.00;99586.69;4985328;28;20290;-73
2023/05/29 03:30:38;;;;;;;;;;;;;;;16.77;100.00;99594.22;4990163;28;20361;-72
2023/05/29 03:33:03;;;;;;;;;;;;;;;16.88;100.00;99595.63;4990391;28;19918;-73
2023/05/29 03:35:47;;;;;;;;;;;;;;;16.96;100.00;99597.38;4988480;28;19918;-72
2023/05/29 03:38:13;;;;;;;;;;;;;;;17.03;100.00;99598.28;4989018;28;19957;-73
2023/05/29 03:40:38;;;;;;;;;;;;;;;17.12;100.00;99603.38;4985424;28;19917;-73
2023/05/29 03:43:04;;;;;;;;;;;;;;;17.14;100.00;99603.19;4989760;28;19932;-73
2023/05/29 03:45:29;;;;;;;;;;;;;;;17.13;100.00;99605.03;4989888;28;19980;-72
2023/05/29 03:47:55;;;;;;;;;;;;;;;17.10;100.00;99599.22;4988219;28;19983;-72
2023/05/29 03:50:21;;;;;;;;;;;;;;;16.94;100.00;99599.38;4987557;28;20028;-72
2023/05/29 03:52:46;;;;;;;;;;;;;;;16.96;100.00;99594.72;4989815;28;19924;-72
2023/05/29 03:55:13;;;;;;;;;;;;;;;16.99;100.00;99599.66;4971694;28;20379;-72
2023/05/29 03:57:40;;;;;;;;;;;;;;;17.04;100.00;99598.09;4991154;28;19921;-72
2023/05/29 04:00:07;;;;;;;;;;;;;;;17.09;100.00;99602.88;4987942;28;19928;-72
2023/05/29 04:02:38;;;;;;;;;;;;;;;17.04;100.00;99605.28;5009039;28;19968;-73
2023/05/29 04:05:06;;;;;;;;;;;;;;;16.90;100.00;99606.09;4985947;28;19956;-72
2023/05/29 04:07:32;;;;;;;;;;;;;;;16.88;100.00;99605.44;4989676;28;19964;-72
2023/05/29 04:09:58;;;;;;;;;;;;;;;16.98;100.00;99616.66;5006527;28;20001;-72
2023/05/29 04:12:23;;;;;;;;;;;;;;;17.08;100.00;99610.03;4984486;28;20441;-72
2023/05/29 04:14:49;;;;;;;;;;;;;;;17.12;100.00;99613.19;5005929;28;19921;-72
2023/05/29 04:17:14;;;;;;;;;;;;;;;17.17;100.00;99610.81;5008679;28;19929;-73
2023/05/29 04:19:42;;;;;;;;;;;;;;;17.16;100.00;99609.13;4984803;28;20212;-73
2023/05/29 04:22:07;;;;;;;;;;;;;;;17.14;100.00;99608.53;4990497;28;19913;-72
2023/05/29 04:24:33;;;;;;;;;;;;;;;17.18;100.00;99615.13;4989932;28;20821;-72
2023/05/29 04:27:00;;;;;;;;;;;;;;;17.12;100.00;99614.03;4982718;28;19917;-74
2023/05/29 04:29:26;;;;;;;;;;;;;;;17.09;100.00;99618.88;4986744;28;20418;-75
2023/05/29 04:31:51;;;;;;;;;;;;;;;17.19;100.00;99622.97;4985266;28;20011;-74
2023/05/29 04:34:17;;;;;;;;;;;;;;;17.07;100.00;99626.25;5005700;28;19917;-74
2023/05/29 04:36:44;;;;;;;;;;;;;;;17.13;100.00;99620.19;4989206;28;19933;-75
2023/05/29 04:39:12;;;;;;;;;;;;;;;17.16;100.00;99625.13;4984642;28;19917;-73
2023/05/29 04:41:37;;;;;;;;;;;;;;;17.26;100.00;99635.56;4983508;28;19928;-73
2023/05/29 04:44:05;;;;;;;;;;;;;;;17.28;100.00;99634.34;4988311;28;19925;-74
2023/05/29 04:46:39;;;;;;;;;;;;;;;17.35;100.00;99632.59;4986930;28;19922;-74
2023/05/29 04:49:04;;;;;;;;;;;;;;;17.29;100.00;99620.00;4970305;28;20026;-73
2023/05/29 04:51:30;;;;;;;;;;;;;;;17.34;100.00;99625.59;5017808;28;19917;-73
2023/05/29 04:53:55;;;;;;;;;;;;;;;17.26;100.00;99617.69;4987621;28;20003;-73
2023/05/29 04:56:21;;;;;;;;;;;;;;;17.28;100.00;99618.34;4982522;28;20352;-73
2023/05/29 04:58:47;;;;;;;;;;;;;;;17.38;100.00;99624.22;4986921;28;19924;-72
2023/05/29 05:01:17;;;;;;;;;;;;;;;17.40;100.00;99638.22;5016428;28;20016;-73
2023/05/29 05:03:43;;;;;;;;;;;;;;;17.43;100.00;99627.19;4988150;28;19976;-74
2023/05/29 05:06:09;;;;;;;;;;;;;;;17.28;100.00;99634.34;5020826;28;19957;-73
2023/05/29 05:08:35;;;;;;;;;;;;;;;17.29;100.00;99636.00;4986070;28;19980;-73
2023/05/29 05:11:01;;;;;;;;;;;;;;;17.42;100.00;99630.84;4989120;28;19922;-73
2023/05/29 05:13:27;;;;;;;;;;;;;;;17.52;100.00;99636.72;5004894;28;19917;-72
2023/05/29 05:15:53;;;;;;;;;;;;;;;17.41;100.00;99639.88;4986632;28;19917;-72
2023/05/29 05:18:19;;;;;;;;;;;;;;;17.35;100.00;99637.94;5006869;28;20377;-73
2023/05/29 05:20:52;;;;;;;;;;;;;;;17.44;100.00;99644.00;4987111;28;19964;-72
2023/05/29 05:23:17;;;;;;;;;;;;;;;17.45;100.00;99646.47;4985875;28;19913;-73
2023/05/29 05:25:42;;;;;;;;;;;;;;;17.44;100.00;99650.16;5019419;28;19925;-74
2023/05/29 05:28:08;;;;;;;;;;;;;;;17.45;100.00;99646.47;5005148;28;19917;-73
2023/05/29 05:30:34;;;;;;;;;;;;;;;17.23;100.00;99647.41;4985447;28;20004;-73
2023/05/29 05:32:59;;;;;;;;;;;;;;;17.17;100.00;99650.81;4985983;28;20373;-73
2023/05/29 05:35:25;;;;;;;;;;;;;;;17.23;100.00;99647.41;4985698;28;19932;-73
2023/05/29 05:37:51;;;;;;;;;;;;;;;17.33;100.00;99647.94;4985041;28;19918;-74
2023/05/29 05:40:16;;;;;;;;;;;;;;;17.45;100.00;99649.16;5014901;28;19924;-74
2023/05/29 05:42:50;;;;;;;;;;;;;;;17.47;100.00;99643.63;4990175;28;19913;-73
2023/05/29 05:45:17;;;;;;;;;;;;;;;17.54;100.00;99640.06;5019789;28;20324;-73
2023/05/29 05:47:43;;;;;;;;;;;;;;;17.64;100.00;99644.28;4985063;28;19913;-73
2023/05/29 05:50:09;;;;;;;;;;;;;;;17.64;100.00;99646.97;4984234;28;19917;-72
2023/05/29 05:52:34;;;;;;;;;;;;;;;17.67;100.00;99643.94;4986184;28;20277;-73
2023/05/29 05:55:00;;;;;;;;;;;;;;;17.57;100.00;99645.00;4985741;28;20424;-73
2023/05/29 05:57:26;;;;;;;;;;;;;;;17.52;100.00;99654.56;4987913;28;19964;-74
2023/05/29 05:59:51;;;;;;;;;;;;;;;17.42;100.00;99657.53;4984911;28;20468;-74
2023/05/29 06:02:17;;;;;;;;;;;;;;;17.44;100.00;99666.16;4985749;28;19917;-72
2023/05/29 06:04:43;;;;;;;;;;;;;;;17.61;100.00;99658.03;5019190;28;19985;-71
2023/05/29 06:07:10;;;;;;;;;;;;;;;17.74;100.00;99658.16;4984794;28;19917;-74
2023/05/29 06:09:36;;;;;;;;;;;;;;;17.86;100.00;99664.69;5005146;28;19928;-74
2023/05/29 06:12:02;;;;;;;;;;;;;;;17.96;100.00;99670.59;4983053;28;19917;-74
2023/05/29 06:14:27;;;;;;;;;;;;;;;18.04;100.00;99667.78;4984865;28;19917;-74
2023/05/29 06:16:54;;;;;;;;;;;;;;;18.11;100.00;99674.03;4979483;28;20267;-73
2023/05/29 06:19:20;;;;;;;;;;;;;;;18.03;100.00;99671.47;5003759;28;19917;-74
2023/05/29 06:21:58;;;;;;;;;;;;;;;17.99;100.00;99676.38;4980525;28;20004;-73
2023/05/29 06:24:26;;;;;;;;;;;;;;;18.02;100.00;99674.34;4977345;28;19968;-74
2023/05/29 06:26:51;;;;;;;;;;;;;;;17.98;100.00;99673.88;4977822;28;19918;-73
2023/05/29 06:29:18;;;;;;;;;;;;;;;18.03;100.00;99676.81;5014982;28;19918;-73
2023/05/29 06:31:43;;;;;;;;;;;;;;;18.07;100.00;99677.28;4986060;28;19914;-73
2023/05/29 06:34:09;;;;;;;;;;;;;;;18.11;100.00;99675.88;4981508;28;20009;-73
2023/05/29 06:36:34;;;;;;;;;;;;;;;17.96;100.00;99681.25;4982226;28;20377;-73
2023/05/29 06:39:00;;;;;;;;;;;;;;;17.95;100.00;99671.59;4983700;28;20330;-73
2023/05/29 06:41:25;;;;;;;;;;;;;;;17.90;100.00;99676.66;4979739;28;19929;-72
2023/05/29 06:43:51;;;;;;;;;;;;;;;18.05;100.00;99679.28;4982046;28;19967;-72
2023/05/29 06:46:17;;;;;;;;;;;;;;;18.20;100.00;99677.44;4979070;28;19925;-71
2023/05/29 06:48:43;;;;;;;;;;;;;;;18.32;100.00;99676.72;4983984;28;20289;-74
2023/05/29 06:51:11;;;;;;;;;;;;;;;18.47;100.00;99678.53;4986431;28;19985;-73
2023/05/29 06:53:40;;;;;;;;;;;;;;;18.47;100.00;99682.03;4988039;28;19924;-73
2023/05/29 06:56:06;;;;;;;;;;;;;;;18.30;100.00;99678.78;4982521;28;19968;-72
2023/05/29 06:58:33;;;;;;;;;;;;;;;18.34;100.00;99679.22;4984312;28;20329;-72
2023/05/29 07:00:59;;;;;;;;;;;;;;;18.50;100.00;99683.47;4982115;28;19918;-72
2023/05/29 07:03:31;;;;;;;;;;;;;;;18.70;100.00;99689.88;4985410;28;20022;-72
2023/05/29 07:05:56;;;;;;;;;;;;;;;18.81;100.00;99678.66;4983407;28;20437;-72
2023/05/29 07:08:22;;;;;;;;;;;;;;;18.87;100.00;99680.56;4987673;28;19917;-74
2023/05/29 07:10:50;;;;;;;;;;;;;;;18.89;100.00;99670.53;4989656;28;20440;-72
2023/05/29 07:13:17;;;;;;;;;;;;;;;18.90;100.00;99674.03;4985495;28;19925;-73
2023/05/29 07:15:43;;;;;;;;;;;;;;;18.81;100.00;99684.00;5001431;28;19922;-72
2023/05/29 07:18:09;;;;;;;;;;;;;;;18.89;100.00;99678.53;4985405;28;19925;-74
2023/05/29 07:20:35;;;;;;;;;;;;;;;19.03;100.00;99682.97;5015117;28;19921;-73
2023/05/29 07:23:02;;;;;;;;;;;;;;;18.98;100.00;99688.06;4983060;28;19972;-73
2023/05/29 07:25:27;;;;;;;;;;;;;;;18.88;100.00;99682.22;4995289;28;19999;-75
2023/05/29 07:27:53;;;;;;;;;;;;;;;19.06;100.00;99695.97;4984933;28;20311;-72
2023/05/29 07:30:18;;;;;;;;;;;;;;;19.16;100.00;99696.44;5009481;28;20326;-71
2023/05/29 07:32:45;;;;;;;;;;;;;;;19.29;100.00;99694.88;4985318;28;19918;-73
2023/05/29 07:35:10;;;;;;;;;;;;;;;19.39;100.00;99695.34;4990143;28;19924;-73
2023/05/29 07:37:36;;;;;;;;;;;;;;;19.49;100.00;99702.06;5007505;28;19922;-73
2023/05/29 07:40:06;;;;;;;;;;;;;;;19.60;100.00;99704.19;5021626;28;19927;-73
2023/05/29 07:42:50;;;;;;;;;;;;;;;19.69;100.00;99702.16;5006175;28;20024;-73
2023/05/29 07:45:16;;;;;;;;;;;;;;;19.81;100.00;99687.19;5018284;28;19925;-73
2023/05/29 07:47:41;;;;;;;;;;;;;;;19.85;100.00;99695.66;4991028;28;19924;-73
2023/05/29 07:50:07;;;;;;;;;;;;;;;19.85;100.00;99690.31;4987985;28;19943;-73
2023/05/29 07:52:33;;;;;;;;;;;;;;;19.80;100.00;99698.91;4990159;28;19917;-73
2023/05/29 07:54:59;;;;;;;;;;;;;;;19.77;100.00;99696.66;4988369;28;20024;-73
2023/05/29 07:57:25;;;;;;;;;;;;;;;19.63;100.00;99693.06;4990819;28;20007;-73
2023/05/29 07:59:52;;;;;;;;;;;;;;;19.61;100.00;99694.31;4987710;28;19918;-71
2023/05/29 08:02:19;;;;;;;;;;;;;;;19.71;100.00;99688.59;4983793;28;20000;-73
2023/05/29 08:05:15;;;;;;;;;;;;;;;19.83;100.00;99693.19;4954593;28;19957;-73
2023/05/29 08:07:41;;;;;;;;;;;;;;;19.88;100.00;99701.44;4989234;28;19964;-73
2023/05/29 08:10:07;;;;;;;;;;;;;;;19.88;100.00;99698.75;4990047;28;20358;-72
2023/05/29 08:12:34;;;;;;;;;;;;;;;19.85;100.00;99701.81;5004933;28;20021;-73
2023/05/29 08:15:00;;;;;;;;;;;;;;;19.87;100.00;99702.47;4988746;28;19924;-73
2023/05/29 08:17:26;;;;;;;;;;;;;;;20.04;100.00;99703.78;4990314;28;19921;-73
2023/05/29 08:19:51;;;;;;;;;;;;;;;20.12;100.00;99701.94;5005269;28;19917;-73
2023/05/29 08:22:16;;;;;;;;;;;;;;;20.15;100.00;99701.53;5008838;28;19971;-73
2023/05/29 08:24:42;;;;;;;;;;;;;;;20.27;100.00;99702.59;5004637;28;19929;-73
2023/05/29 08:27:07;;;;;;;;;;;;;;;20.38;100.00;99704.75;5006722;28;19924;-73
2023/05/29 08:29:32;;;;;;;;;;;;;;;20.46;100.00;99699.19;5005247;28;20004;-72
2023/05/29 08:31:58;;;;;;;;;;;;;;;20.41;100.00;99701.66;5007991;28;20350;-75
2023/05/29 08:34:23;;;;;;;;;;;;;;;20.37;100.00;99705.78;4987219;28;20028;-73
2023/05/29 08:36:51;;;;;;;;;;;;;;;20.33;100.00;99712.56;5008005;28;19965;-73
2023/05/29 08:39:16;;;;;;;;;;;;;;;20.41;100.00;99715.06;5004561;28;20019;-75
2023/05/29 08:41:42;;;;;;;;;;;;;;;20.45;100.00;99716.28;5005931;28;20485;-73
2023/05/29 08:44:07;;;;;;;;;;;;;;;20.55;100.00;99713.25;4987479;28;19917;-74
2023/05/29 08:46:33;;;;;;;;;;;;;;;20.59;100.00;99718.00;5004193;28;19929;-75
2023/05/29 08:49:01;;;;;;;;;;;;;;;20.60;100.00;99714.28;5000840;28;20020;-73
2023/05/29 08:51:31;;;;;;;;;;;;;;;20.58;100.00;99724.38;5007490;28;19928;-72
2023/05/29 08:53:57;;;;;;;;;;;;;;;20.55;100.00;99730.16;5005397;28;19923;-73
2023/05/29 08:56:22;;;;;;;;;;;;;;;20.64;100.00;99733.47;5008319;28;19917;-73
2023/05/29 08:58:48;;;;;;;;;;;;;;;20.76;100.00;99727.31;5004340;28;20400;-73
2023/05/29 09:01:15;;;;;;;;;;;;;;;20.96;100.00;99731.88;5005650;28;19921;-72
2023/05/29 09:03:41;;;;;;;;;;;;;;;21.13;100.00;99733.13;5005834;28;20043;-71
2023/05/29 09:06:08;;;;;;;;;;;;;;;21.25;100.00;99734.19;5006549;28;19952;-72
2023/05/29 09:08:33;;;;;;;;;;;;;;;21.35;100.00;99726.53;5006208;28;19953;-73
2023/05/29 09:10:59;;;;;;;;;;;;;;;21.43;100.00;99723.63;5006930;28;20344;-73
2023/05/29 09:13:24;;;;;;;;;;;;;;;21.46;100.00;99728.56;5004167;28;19972;-73
2023/05/29 09:15:50;;;;;;;;;;;;;;;21.41;100.00;99724.88;5005182;28;19926;-74
2023/05/29 09:18:17;;;;;;;;;;;;;;;21.35;100.00;99723.84;5006838;28;19925;-74
2023/05/29 09:20:43;;;;;;;;;;;;;;;21.31;100.00;99727.97;5005434;28;20087;-73
2023/05/29 09:23:09;;;;;;;;;;;;;;;21.26;100.00;99727.78;5006306;28;19917;-72
2023/05/29 09:25:45;;;;;;;;;;;;;;;21.22;100.00;99731.88;5005724;28;19917;-72
2023/05/29 09:28:11;;;;;;;;;;;;;;;21.20;100.00;99729.44;5003449;28;19957;-72
2023/05/29 09:30:40;;;;;;;;;;;;;;;21.11;100.00;99729.81;4986078;28;19953;-72
2023/05/29 09:33:07;;;;;;;;;;;;;;;21.14;100.00;99729.41;5006885;28;19921;-74
2023/05/29 09:35:33;;;;;;;;;;;;;;;21.19;100.00;99729.63;5003919;28;20328;-74
2023/05/29 09:37:58;;;;;;;;;;;;;;;21.31;100.00;99725.28;5007373;28;19917;-75
2023/05/29 09:40:23;;;;;;;;;;;;;;;21.45;100.00;99726.09;5003740;28;19924;-74
2023/05/29 09:42:49;;;;;;;;;;;;;;;21.41;100.00;99731.06;5007660;28;19924;-74
2023/05/29 09:45:17;;;;;;;;;;;;;;;21.46;100.00;99728.56;5005881;28;19925;-72
2023/05/29 09:47:43;;;;;;;;;;;;;;;21.59;100.00;99727.72;5006296;28;20263;-74
2023/05/29 09:50:18;;;;;;;;;;;;;;;21.80;100.00;99726.63;4986389;28;19929;-73
2023/05/29 09:52:43;;;;;;;;;;;;;;;21.83;100.00;99728.91;5006834;28;19926;-73
2023/05/29 09:55:10;;;;;;;;;;;;;;;22.02;100.00;99728.06;5004146;28;19917;-72
2023/05/29 09:57:36;;;;;;;;;;;;;;;22.09;100.00;99731.53;5006405;28;19953;-73
2023/05/29 10:00:03;;;;;;;;;;;;;;;22.12;100.00;99733.81;5003408;28;19934;-73
2023/05/29 10:02:37;;;;;;;;;;;;;;;22.14;100.00;99726.34;5006620;28;19921;-74
2023/05/29 10:05:02;;;;;;;;;;;;;;;22.13;100.00;99724.69;5003441;28;19918;-74
2023/05/29 10:07:32;;;;;;;;;;;;;;;22.05;100.00;99733.00;5002855;28;19917;-73
2023/05/29 10:10:03;;;;;;;;;;;;;;;22.07;100.00;99722.88;5004043;28;20455;-73
2023/05/29 10:12:29;;;;;;;;;;;;;;;21.96;100.00;99728.91;5006091;28;19968;-73
2023/05/29 10:14:57;;;;;;;;;;;;;;;22.03;100.00;99727.03;5003874;28;20329;-73
2023/05/29 10:17:25;;;;;;;;;;;;;;;22.15;100.00;99727.97;5003730;28;19967;-73
2023/05/29 10:19:51;;;;;;;;;;;;;;;22.28;100.00;99719.88;5003605;28;19925;-72
2023/05/29 10:22:19;;;;;;;;;;;;;;;22.33;100.00;99721.91;5006935;28;19960;-73
2023/05/29 10:24:45;;;;;;;;;;;;;;;22.09;100.00;99718.09;5003601;28;20262;-73
2023/05/29 10:27:11;;;;;;;;;;;;;;;22.04;100.00;99717.91;5008769;28;20015;-73
2023/05/29 10:29:39;;;;;;;;;;;;;;;22.04;100.00;99712.53;5008514;28;20469;-73
2023/05/29 10:32:07;;;;;;;;;;;;;;;22.05;100.00;99714.19;5009696;28;20333;-74
2023/05/29 10:34:33;;;;;;;;;;;;;;;22.14;100.00;99702.16;5008528;28;20271;-73
2023/05/29 10:37:05;;;;;;;;;;;;;;;22.11;100.00;99712.50;5010522;28;19944;-73
2023/05/29 10:39:31;;;;;;;;;;;;;;;22.15;100.00;99703.78;5007928;28;20285;-73
2023/05/29 10:41:58;;;;;;;;;;;;;;;22.11;100.00;99704.44;5006276;28;19917;-73
2023/05/29 10:44:41;;;;;;;;;;;;;;;22.19;100.00;99702.34;5009164;28;20374;-73
2023/05/29 10:47:08;;;;;;;;;;;;;;;22.22;100.00;99699.22;5005905;28;19917;-74
2023/05/29 10:49:34;;;;;;;;;;;;;;;22.25;100.00;99701.50;5008018;28;19924;-73
2023/05/29 10:52:00;;;;;;;;;;;;;;;22.31;100.00;99695.25;5006207;28;19918;-73
2023/05/29 10:54:26;;;;;;;;;;;;;;;22.46;100.00;99695.78;5009285;28;19932;-73
2023/05/29 10:56:52;;;;;;;;;;;;;;;22.66;100.00;99702.91;5007070;28;19918;-73
2023/05/29 10:59:18;;;;;;;;;;;;;;;22.80;100.00;99696.41;5010500;28;20251;-73
2023/05/29 11:01:44;;;;;;;;;;;;;;;22.98;100.00;99701.84;5007225;28;19986;-74
2023/05/29 11:04:15;;;;;;;;;;;;;;;23.14;100.00;99703.19;5010010;28;19917;-74
2023/05/29 11:06:41;;;;;;;;;;;;;;;23.02;100.00;99700.38;5006738;28;19922;-73
2023/05/29 11:09:25;;;;;;;;;;;;;;;23.06;100.00;99693.50;5010601;28;19917;-73
2023/05/29 11:12:10;;;;;;;;;;;;;;;23.10;100.00;99693.88;5009154;28;19991;-72
2023/05/29 11:14:46;;;;;;;;;;;;;;;23.15;100.00;99692.19;5005741;28;19922;-73
2023/05/29 11:17:31;;;;;;;;;;;;;;;23.08;100.00;99691.44;5009766;28;20266;-74
2023/05/29 11:19:57;;;;;;;;;;;;;;;23.06;100.00;99692.69;5007411;28;20310;-74
2023/05/29 11:22:27;;;;;;;;;;;;;;;23.04;100.00;99684.81;4988659;28;20037;-73
2023/05/29 11:24:53;;;;;;;;;;;;;;;23.04;100.00;99678.63;5006371;28;20007;-71
2023/05/29 11:27:18;;;;;;;;;;;;;;;23.01;100.00;99674.50;5006080;28;19918;-73
2023/05/29 11:29:45;;;;;;;;;;;;;;;22.96;100.00;99682.44;5009024;28;19980;-74
2023/05/29 11:32:12;;;;;;;;;;;;;;;22.93;100.00;99677.47;5007910;28;19917;-73
2023/05/29 11:34:39;;;;;;;;;;;;;;;22.80;100.00;99678.41;5008724;28;19921;-75
2023/05/29 11:37:04;;;;;;;;;;;;;;;22.86;98.56;99679.38;5005895;28;20024;-73
2023/05/29 11:39:33;;;;;;;;;;;;;;;22.83;96.27;99669.06;5008889;28;20008;-73
2023/05/29 11:42:00;;;;;;;;;;;;;;;22.81;94.80;99665.78;5008861;28;20549;-72
2023/05/29 11:44:28;;;;;;;;;;;;;;;22.80;97.28;99656.88;5002222;28;19924;-73
2023/05/29 11:47:11;;;;;;;;;;;;;;;22.81;96.87;99657.69;5005641;28;20382;-72
2023/05/29 11:49:37;;;;;;;;;;;;;;;22.82;95.85;99653.97;5007477;28;19918;-73
2023/05/29 11:52:09;;;;;;;;;;;;;;;22.82;95.67;99652.09;4985952;28;20024;-72
2023/05/29 11:54:34;;;;;;;;;;;;;;;22.88;95.93;99646.88;5006171;28;19952;-72
2023/05/29 11:57:00;;;;;;;;;;;;;;;22.99;98.92;99649.69;4989419;28;20363;-74
2023/05/29 11:59:28;;;;;;;;;;;;;;;23.12;100.00;99648.75;5007823;28;19928;-74
2023/05/29 12:01:53;;;;;;;;;;;;;;;23.32;99.38;99637.78;5002254;28;19918;-73
2023/05/29 12:04:19;;;;;;;;;;;;;;;23.52;98.13;99635.72;5009037;28;20437;-74
2023/05/29 12:06:44;;;;;;;;;;;;;;;23.75;96.43;99638.56;5005534;28;20285;-73
2023/05/29 12:09:22;;;;;;;;;;;;;;;23.86;95.87;99629.69;5007414;28;20365;-74
2023/05/29 12:11:49;;;;;;;;;;;;;;;24.06;94.43;99630.28;5008135;28;19917;-72
2023/05/29 12:14:14;;;;;;;;;;;;;;;24.17;92.56;99635.94;5006089;28;19925;-74
2023/05/29 12:16:39;;;;;;;;;;;;;;;24.38;92.34;99627.38;5006995;28;19928;-73
2023/05/29 12:19:05;;;;;;;;;;;;;;;24.46;88.43;99635.13;5007440;28;19921;-73
2023/05/29 12:21:30;;;;;;;;;;;;;;;24.68;86.60;99628.13;5003857;28;19928;-73
2023/05/29 12:23:56;;;;;;;;;;;;;;;24.90;87.58;99628.44;5008411;28;19914;-75
2023/05/29 12:26:22;;;;;;;;;;;;;;;25.06;84.91;99619.63;5004868;28;19964;-74
2023/05/29 12:28:48;;;;;;;;;;;;;;;25.31;85.36;99616.69;5005212;28;19963;-74
2023/05/29 12:31:14;;;;;;;;;;;;;;;25.38;85.18;99622.78;5007361;28;19918;-75
2023/05/29 12:33:43;;;;;;;;;;;;;;;25.45;86.74;99612.66;5006542;28;19917;-73
2023/05/29 12:36:10;;;;;;;;;;;;;;;25.67;84.82;99626.41;5006926;28;19925;-74